Fort Smith, AR (72903)

12:19 AM CDT on June 25, 2017 (GMT -0500)
Fort Smith Regional | | Change Station

Elev 466 ft 35.34 °N, 94.37 °W | Updated 26 minutes ago

Overcast
Overcast
73 °F
Feels Like 73 °F
N
6
Wind Variable Wind from NE

Today
High -- | Low -- °F
--% Chance of Precip.
Yesterday
High -- | Low -- °F
Precip. -- in
Pressure 30.20 in
Visibility 10.0 miles
Clouds Overcast 12000 ft
Dew Point 63 °F
Humidity 71%
Rainfall 0.00 in
Snow Depth Not available.
6:04 AM 8:36 PM
New Moon, 2% visible
METAR KFSM 250453Z AUTO 05005KT 10SM OVC120 23/17 A3021 RMK AO2 SLP226 T02280172
Pressure 30.20 in
Visibility 10.0 miles
Clouds Overcast 12000 ft
Dew Point 63 °F
Humidity 71%
Rainfall 0.00 in
Snow Depth Not available.
6:04 AM 8:36 PM
New Moon, 2% visible
METAR KFSM 250453Z AUTO 05005KT 10SM OVC120 23/17 A3021 RMK AO2 SLP226 T02280172

Get Severe Weather Alerts

Thanks for signing up!

Be on the lookout for a verification email in your inbox.

You'll start receiving the daily forecast at 6 AM.

×

10-Day Weather Forecast

Almanac

Astronomy

Jun. 25, 2017 Rise Set
Actual Time
Civil Twilight
Nautical Twilight
Astronomical Twilight
Moon
Length of Visible Light
Length of Day
Tomorrow will be .
, % of the Moon is Illuminated

Today's Extremes

State Highs State Lows

Community

WunderPhotos

Category 6

Welcome to Category 6. This is the collective home for Weather Underground's featured writeups by Dr. Jeff Masters (right), Bob Henson (left), Chris Burt, and other regular contributors.

Nearby

Air Quality

  Air Quality AQ Index Pollutant
Not available.

Snow Depth

Station Depth Elevation

Earthquake Activity

City Distance Mag. Time & Date
Minimum magnitude displayed is 2.5.

Coastal Water Temperatures

Place Temperature

Stations

Nearby Weather Stations

Station Location Temp. Windchill Dew Point Humidity Wind Precip. Elev Updated Type
                   

Watches & Warnings

There are currently no watches in effect.